sensor_id;sensor_type;location;lat;lon;timestamp;P1;durP1;ratioP1;P2;durP2;ratioP2
5871;SDS011;2962;51.312;7.378;2023-12-07T00:01:03;76.57;;;22.70;;
5871;SDS011;2962;51.312;7.378;2023-12-07T00:03:29;45.58;;;20.10;;
5871;SDS011;2962;51.312;7.378;2023-12-07T00:05:55;67.63;;;22.50;;
5871;SDS011;2962;51.312;7.378;2023-12-07T00:08:20;199.40;;;27.57;;
5871;SDS011;2962;51.312;7.378;2023-12-07T00:10:45;83.40;;;24.20;;
5871;SDS011;2962;51.312;7.378;2023-12-07T00:13:10;159.53;;;23.70;;
5871;SDS011;2962;51.312;7.378;2023-12-07T00:15:36;163.23;;;24.67;;
5871;SDS011;2962;51.312;7.378;2023-12-07T00:18:02;133.20;;;26.60;;
5871;SDS011;2962;51.312;7.378;2023-12-07T00:20:28;132.77;;;25.42;;
5871;SDS011;2962;51.312;7.378;2023-12-07T00:22:53;75.37;;;24.63;;
5871;SDS011;2962;51.312;7.378;2023-12-07T00:25:19;97.10;;;23.60;;
5871;SDS011;2962;51.312;7.378;2023-12-07T00:27:44;133.60;;;26.70;;
5871;SDS011;2962;51.312;7.378;2023-12-07T00:30:10;421.50;;;37.10;;
5871;SDS011;2962;51.312;7.378;2023-12-07T00:32:36;164.77;;;29.50;;
5871;SDS011;2962;51.312;7.378;2023-12-07T00:35:01;138.70;;;27.40;;
5871;SDS011;2962;51.312;7.378;2023-12-07T00:37:26;158.80;;;28.00;;
5871;SDS011;2962;51.312;7.378;2023-12-07T00:39:52;605.17;;;46.40;;
5871;SDS011;2962;51.312;7.378;2023-12-07T00:42:17;417.27;;;37.80;;
5871;SDS011;2962;51.312;7.378;2023-12-07T00:44:42;678.50;;;52.07;;
5871;SDS011;2962;51.312;7.378;2023-12-07T00:47:08;583.50;;;47.90;;
5871;SDS011;2962;51.312;7.378;2023-12-07T00:49:37;530.57;;;43.50;;
5871;SDS011;2962;51.312;7.378;2023-12-07T00:52:05;316.42;;;32.00;;
5871;SDS011;2962;51.312;7.378;2023-12-07T00:54:31;332.33;;;32.33;;
5871;SDS011;2962;51.312;7.378;2023-12-07T00:56:56;521.20;;;39.43;;
5871;SDS011;2962;51.312;7.378;2023-12-07T00:59:22;334.25;;;31.17;;
5871;SDS011;2962;51.312;7.378;2023-12-07T01:01:48;451.73;;;39.50;;
5871;SDS011;2962;51.312;7.378;2023-12-07T01:04:13;183.83;;;26.47;;
5871;SDS011;2962;51.312;7.378;2023-12-07T01:06:38;246.73;;;30.90;;
5871;SDS011;2962;51.312;7.378;2023-12-07T01:09:03;312.00;;;31.23;;
5871;SDS011;2962;51.312;7.378;2023-12-07T01:11:29;235.23;;;27.93;;
5871;SDS011;2962;51.312;7.378;2023-12-07T01:13:54;460.87;;;38.57;;
5871;SDS011;2962;51.312;7.378;2023-12-07T01:16:19;424.53;;;35.97;;
5871;SDS011;2962;51.312;7.378;2023-12-07T01:18:45;220.03;;;27.17;;
5871;SDS011;2962;51.312;7.378;2023-12-07T01:21:10;405.17;;;35.73;;
5871;SDS011;2962;51.312;7.378;2023-12-07T01:23:35;781.30;;;58.17;;
5871;SDS011;2962;51.312;7.378;2023-12-07T01:26:00;364.37;;;34.67;;
5871;SDS011;2962;51.312;7.378;2023-12-07T01:28:27;494.50;;;40.08;;
5871;SDS011;2962;51.312;7.378;2023-12-07T01:30:52;359.63;;;34.87;;
5871;SDS011;2962;51.312;7.378;2023-12-07T01:33:18;461.43;;;40.00;;
5871;SDS011;2962;51.312;7.378;2023-12-07T01:35:43;608.47;;;45.63;;
5871;SDS011;2962;51.312;7.378;2023-12-07T01:38:08;302.33;;;32.57;;
5871;SDS011;2962;51.312;7.378;2023-12-07T01:40:33;271.00;;;33.93;;
5871;SDS011;2962;51.312;7.378;2023-12-07T01:42:59;586.97;;;48.23;;
5871;SDS011;2962;51.312;7.378;2023-12-07T01:45:25;232.63;;;31.80;;
5871;SDS011;2962;51.312;7.378;2023-12-07T01:47:51;446.73;;;36.67;;
5871;SDS011;2962;51.312;7.378;2023-12-07T01:50:18;529.65;;;40.20;;
5871;SDS011;2962;51.312;7.378;2023-12-07T01:52:48;703.88;;;50.50;;
5871;SDS011;2962;51.312;7.378;2023-12-07T01:55:19;629.22;;;43.75;;
5871;SDS011;2962;51.312;7.378;2023-12-07T01:57:46;195.40;;;29.27;;
5871;SDS011;2962;51.312;7.378;2023-12-07T02:00:12;144.60;;;26.30;;
5871;SDS011;2962;51.312;7.378;2023-12-07T02:02:39;431.92;;;36.53;;
5871;SDS011;2962;51.312;7.378;2023-12-07T02:05:04;278.13;;;31.03;;
5871;SDS011;2962;51.312;7.378;2023-12-07T02:07:31;392.88;;;37.28;;
5871;SDS011;2962;51.312;7.378;2023-12-07T02:09:57;305.30;;;30.63;;
5871;SDS011;2962;51.312;7.378;2023-12-07T02:12:23;348.75;;;33.95;;
5871;SDS011;2962;51.312;7.378;2023-12-07T02:14:49;335.60;;;33.50;;
5871;SDS011;2962;51.312;7.378;2023-12-07T02:22:28;220.82;;;26.55;;
5871;SDS011;2962;51.312;7.378;2023-12-07T02:25:15;271.50;;;26.95;;
5871;SDS011;2962;51.312;7.378;2023-12-07T02:27:44;568.47;;;40.10;;
5871;SDS011;2962;51.312;7.378;2023-12-07T02:30:11;98.00;;;23.58;;
5871;SDS011;2962;51.312;7.378;2023-12-07T02:32:37;123.57;;;24.52;;
5871;SDS011;2962;51.312;7.378;2023-12-07T02:35:03;639.08;;;42.03;;
5871;SDS011;2962;51.312;7.378;2023-12-07T02:37:32;295.45;;;29.38;;
5871;SDS011;2962;51.312;7.378;2023-12-07T02:40:02;144.07;;;24.05;;
5871;SDS011;2962;51.312;7.378;2023-12-07T02:42:29;135.40;;;24.25;;
5871;SDS011;2962;51.312;7.378;2023-12-07T02:44:56;103.50;;;23.65;;
5871;SDS011;2962;51.312;7.378;2023-12-07T02:47:22;645.60;;;44.53;;
5871;SDS011;2962;51.312;7.378;2023-12-07T02:49:47;137.67;;;22.53;;
5871;SDS011;2962;51.312;7.378;2023-12-07T02:52:12;60.90;;;20.70;;
5871;SDS011;2962;51.312;7.378;2023-12-07T02:54:38;50.33;;;19.20;;
5871;SDS011;2962;51.312;7.378;2023-12-07T02:57:03;112.00;;;22.37;;
5871;SDS011;2962;51.312;7.378;2023-12-07T02:59:28;66.53;;;20.17;;
5871;SDS011;2962;51.312;7.378;2023-12-07T03:01:53;100.60;;;22.40;;
5871;SDS011;2962;51.312;7.378;2023-12-07T03:04:19;48.50;;;18.93;;
5871;SDS011;2962;51.312;7.378;2023-12-07T03:06:44;115.73;;;22.60;;
5871;SDS011;2962;51.312;7.378;2023-12-07T03:09:09;519.87;;;39.80;;
5871;SDS011;2962;51.312;7.378;2023-12-07T03:11:35;607.07;;;43.87;;
5871;SDS011;2962;51.312;7.378;2023-12-07T03:14:00;225.57;;;25.97;;
5871;SDS011;2962;51.312;7.378;2023-12-07T03:16:25;135.73;;;20.53;;
5871;SDS011;2962;51.312;7.378;2023-12-07T03:18:50;184.90;;;23.23;;
5871;SDS011;2962;51.312;7.378;2023-12-07T03:21:16;110.13;;;22.23;;
5871;SDS011;2962;51.312;7.378;2023-12-07T03:23:41;107.63;;;21.03;;
5871;SDS011;2962;51.312;7.378;2023-12-07T03:26:06;305.73;;;28.83;;
5871;SDS011;2962;51.312;7.378;2023-12-07T03:28:32;354.30;;;30.23;;
5871;SDS011;2962;51.312;7.378;2023-12-07T03:30:57;270.10;;;28.47;;
5871;SDS011;2962;51.312;7.378;2023-12-07T03:33:22;358.70;;;32.20;;
5871;SDS011;2962;51.312;7.378;2023-12-07T03:35:47;442.80;;;32.60;;
5871;SDS011;2962;51.312;7.378;2023-12-07T03:38:14;505.40;;;33.73;;
5871;SDS011;2962;51.312;7.378;2023-12-07T03:40:39;273.55;;;26.15;;
5871;SDS011;2962;51.312;7.378;2023-12-07T03:43:05;399.40;;;33.77;;
5871;SDS011;2962;51.312;7.378;2023-12-07T03:45:30;383.40;;;30.13;;
5871;SDS011;2962;51.312;7.378;2023-12-07T03:47:55;655.67;;;41.53;;
5871;SDS011;2962;51.312;7.378;2023-12-07T03:50:20;393.53;;;31.57;;
5871;SDS011;2962;51.312;7.378;2023-12-07T03:52:46;567.50;;;40.23;;
5871;SDS011;2962;51.312;7.378;2023-12-07T03:55:11;567.03;;;36.60;;
5871;SDS011;2962;51.312;7.378;2023-12-07T03:57:37;727.03;;;46.87;;
5871;SDS011;2962;51.312;7.378;2023-12-07T04:00:02;528.00;;;39.27;;
5871;SDS011;2962;51.312;7.378;2023-12-07T04:02:29;655.55;;;47.75;;
5871;SDS011;2962;51.312;7.378;2023-12-07T04:04:58;834.42;;;52.53;;
5871;SDS011;2962;51.312;7.378;2023-12-07T04:07:26;579.08;;;37.95;;
5871;SDS011;2962;51.312;7.378;2023-12-07T04:09:52;666.37;;;44.77;;
5871;SDS011;2962;51.312;7.378;2023-12-07T04:12:17;799.33;;;49.50;;
5871;SDS011;2962;51.312;7.378;2023-12-07T04:14:42;280.23;;;25.47;;
5871;SDS011;2962;51.312;7.378;2023-12-07T04:17:08;522.17;;;35.27;;
5871;SDS011;2962;51.312;7.378;2023-12-07T04:19:33;530.10;;;36.57;;
5871;SDS011;2962;51.312;7.378;2023-12-07T04:21:58;1010.57;;;63.97;;
5871;SDS011;2962;51.312;7.378;2023-12-07T04:24:23;772.40;;;49.37;;
5871;SDS011;2962;51.312;7.378;2023-12-07T04:26:49;695.10;;;44.67;;
5871;SDS011;2962;51.312;7.378;2023-12-07T04:29:14;691.63;;;43.90;;
5871;SDS011;2962;51.312;7.378;2023-12-07T04:31:39;556.97;;;38.70;;
5871;SDS011;2962;51.312;7.378;2023-12-07T04:34:05;688.20;;;41.30;;
5871;SDS011;2962;51.312;7.378;2023-12-07T04:36:30;895.70;;;58.00;;
5871;SDS011;2962;51.312;7.378;2023-12-07T04:38:56;902.60;;;57.20;;
5871;SDS011;2962;51.312;7.378;2023-12-07T04:41:21;936.97;;;62.07;;
5871;SDS011;2962;51.312;7.378;2023-12-07T04:43:47;831.50;;;53.23;;
5871;SDS011;2962;51.312;7.378;2023-12-07T04:46:12;919.13;;;58.27;;
5871;SDS011;2962;51.312;7.378;2023-12-07T04:48:37;924.47;;;57.17;;
5871;SDS011;2962;51.312;7.378;2023-12-07T04:51:03;830.83;;;52.37;;
5871;SDS011;2962;51.312;7.378;2023-12-07T04:53:28;939.93;;;59.07;;
5871;SDS011;2962;51.312;7.378;2023-12-07T04:55:54;789.13;;;52.90;;
5871;SDS011;2962;51.312;7.378;2023-12-07T04:58:19;671.33;;;47.70;;
5871;SDS011;2962;51.312;7.378;2023-12-07T05:00:44;795.63;;;50.13;;
5871;SDS011;2962;51.312;7.378;2023-12-07T05:03:09;742.00;;;47.60;;
5871;SDS011;2962;51.312;7.378;2023-12-07T05:05:35;866.43;;;57.40;;
5871;SDS011;2962;51.312;7.378;2023-12-07T05:08:01;739.65;;;46.75;;
5871;SDS011;2962;51.312;7.378;2023-12-07T05:10:26;734.30;;;44.63;;
5871;SDS011;2962;51.312;7.378;2023-12-07T05:12:51;592.13;;;37.60;;
5871;SDS011;2962;51.312;7.378;2023-12-07T05:15:17;800.77;;;51.50;;
5871;SDS011;2962;51.312;7.378;2023-12-07T05:17:42;689.37;;;42.23;;
5871;SDS011;2962;51.312;7.378;2023-12-07T05:20:08;646.97;;;42.87;;
5871;SDS011;2962;51.312;7.378;2023-12-07T05:22:33;753.40;;;46.30;;
5871;SDS011;2962;51.312;7.378;2023-12-07T05:24:58;642.83;;;41.20;;
5871;SDS011;2962;51.312;7.378;2023-12-07T05:27:24;771.47;;;47.23;;
5871;SDS011;2962;51.312;7.378;2023-12-07T05:29:49;621.03;;;42.17;;
5871;SDS011;2962;51.312;7.378;2023-12-07T05:32:14;640.50;;;43.10;;
5871;SDS011;2962;51.312;7.378;2023-12-07T05:34:40;377.30;;;34.63;;
5871;SDS011;2962;51.312;7.378;2023-12-07T05:37:05;106.07;;;20.03;;
5871;SDS011;2962;51.312;7.378;2023-12-07T05:39:30;105.80;;;23.77;;
5871;SDS011;2962;51.312;7.378;2023-12-07T05:41:56;100.30;;;23.87;;
5871;SDS011;2962;51.312;7.378;2023-12-07T05:44:21;137.63;;;26.40;;
5871;SDS011;2962;51.312;7.378;2023-12-07T05:46:47;122.67;;;23.90;;
5871;SDS011;2962;51.312;7.378;2023-12-07T05:49:13;121.23;;;25.43;;
5871;SDS011;2962;51.312;7.378;2023-12-07T05:51:38;110.63;;;24.57;;
5871;SDS011;2962;51.312;7.378;2023-12-07T05:54:04;89.00;;;23.77;;
5871;SDS011;2962;51.312;7.378;2023-12-07T05:56:30;92.13;;;22.85;;
5871;SDS011;2962;51.312;7.378;2023-12-07T05:58:56;95.87;;;23.30;;
5871;SDS011;2962;51.312;7.378;2023-12-07T06:01:22;97.60;;;22.00;;
5871;SDS011;2962;51.312;7.378;2023-12-07T06:03:47;85.03;;;22.10;;
5871;SDS011;2962;51.312;7.378;2023-12-07T06:06:12;83.00;;;21.40;;
5871;SDS011;2962;51.312;7.378;2023-12-07T06:08:38;79.77;;;23.40;;
5871;SDS011;2962;51.312;7.378;2023-12-07T06:11:03;78.23;;;22.63;;
5871;SDS011;2962;51.312;7.378;2023-12-07T06:13:29;71.10;;;19.77;;
5871;SDS011;2962;51.312;7.378;2023-12-07T06:15:54;86.63;;;22.83;;
5871;SDS011;2962;51.312;7.378;2023-12-07T06:18:19;81.33;;;21.77;;
5871;SDS011;2962;51.312;7.378;2023-12-07T06:20:44;71.13;;;23.50;;
5871;SDS011;2962;51.312;7.378;2023-12-07T06:23:10;96.17;;;23.87;;
5871;SDS011;2962;51.312;7.378;2023-12-07T06:25:40;81.93;;;23.88;;
5871;SDS011;2962;51.312;7.378;2023-12-07T06:28:05;85.47;;;24.17;;
5871;SDS011;2962;51.312;7.378;2023-12-07T06:30:31;103.07;;;26.93;;
5871;SDS011;2962;51.312;7.378;2023-12-07T06:32:56;86.90;;;26.57;;
5871;SDS011;2962;51.312;7.378;2023-12-07T06:35:21;86.17;;;25.60;;
5871;SDS011;2962;51.312;7.378;2023-12-07T06:37:47;88.23;;;25.73;;
5871;SDS011;2962;51.312;7.378;2023-12-07T06:40:12;93.47;;;25.20;;
5871;SDS011;2962;51.312;7.378;2023-12-07T06:42:37;105.07;;;26.03;;
5871;SDS011;2962;51.312;7.378;2023-12-07T06:45:03;101.97;;;25.83;;
5871;SDS011;2962;51.312;7.378;2023-12-07T06:47:29;100.30;;;27.13;;
5871;SDS011;2962;51.312;7.378;2023-12-07T06:49:54;107.80;;;27.53;;
5871;SDS011;2962;51.312;7.378;2023-12-07T06:52:21;101.85;;;26.63;;
5871;SDS011;2962;51.312;7.378;2023-12-07T06:54:46;104.50;;;29.07;;
5871;SDS011;2962;51.312;7.378;2023-12-07T06:57:12;106.17;;;28.53;;
5871;SDS011;2962;51.312;7.378;2023-12-07T06:59:37;106.90;;;28.00;;
5871;SDS011;2962;51.312;7.378;2023-12-07T07:02:03;115.10;;;29.90;;
5871;SDS011;2962;51.312;7.378;2023-12-07T07:04:28;112.60;;;29.60;;
5871;SDS011;2962;51.312;7.378;2023-12-07T07:06:54;105.53;;;28.10;;
5871;SDS011;2962;51.312;7.378;2023-12-07T07:09:20;89.07;;;28.17;;
5871;SDS011;2962;51.312;7.378;2023-12-07T07:11:49;88.10;;;25.77;;
5871;SDS011;2962;51.312;7.378;2023-12-07T07:14:14;94.93;;;27.48;;
5871;SDS011;2962;51.312;7.378;2023-12-07T07:16:40;101.55;;;29.35;;
5871;SDS011;2962;51.312;7.378;2023-12-07T07:19:06;99.70;;;30.03;;
5871;SDS011;2962;51.312;7.378;2023-12-07T07:21:31;109.40;;;27.70;;
5871;SDS011;2962;51.312;7.378;2023-12-07T07:23:57;99.50;;;28.40;;
5871;SDS011;2962;51.312;7.378;2023-12-07T07:26:22;104.13;;;28.20;;
5871;SDS011;2962;51.312;7.378;2023-12-07T07:28:50;102.20;;;30.25;;
5871;SDS011;2962;51.312;7.378;2023-12-07T07:31:15;106.40;;;29.40;;
5871;SDS011;2962;51.312;7.378;2023-12-07T07:33:41;98.70;;;28.77;;
5871;SDS011;2962;51.312;7.378;2023-12-07T07:36:06;98.70;;;29.27;;
5871;SDS011;2962;51.312;7.378;2023-12-07T07:38:31;93.90;;;29.40;;
5871;SDS011;2962;51.312;7.378;2023-12-07T07:40:57;87.70;;;27.80;;
5871;SDS011;2962;51.312;7.378;2023-12-07T07:43:22;87.10;;;27.30;;
5871;SDS011;2962;51.312;7.378;2023-12-07T07:45:47;104.17;;;30.23;;
5871;SDS011;2962;51.312;7.378;2023-12-07T07:48:13;103.83;;;31.20;;
5871;SDS011;2962;51.312;7.378;2023-12-07T07:50:38;101.23;;;27.80;;
5871;SDS011;2962;51.312;7.378;2023-12-07T07:53:03;102.13;;;28.47;;
5871;SDS011;2962;51.312;7.378;2023-12-07T07:55:29;99.33;;;28.07;;
5871;SDS011;2962;51.312;7.378;2023-12-07T07:57:55;78.65;;;26.45;;
5871;SDS011;2962;51.312;7.378;2023-12-07T08:00:20;85.23;;;27.83;;
5871;SDS011;2962;51.312;7.378;2023-12-07T08:02:46;87.43;;;26.43;;
5871;SDS011;2962;51.312;7.378;2023-12-07T08:05:12;71.40;;;24.60;;
5871;SDS011;2962;51.312;7.378;2023-12-07T08:07:37;86.03;;;25.03;;
5871;SDS011;2962;51.312;7.378;2023-12-07T08:10:04;85.53;;;28.17;;
5871;SDS011;2962;51.312;7.378;2023-12-07T08:12:30;84.93;;;25.60;;
5871;SDS011;2962;51.312;7.378;2023-12-07T08:14:56;72.63;;;24.70;;
5871;SDS011;2962;51.312;7.378;2023-12-07T08:17:21;77.97;;;25.50;;
5871;SDS011;2962;51.312;7.378;2023-12-07T08:19:46;56.73;;;22.20;;
5871;SDS011;2962;51.312;7.378;2023-12-07T08:22:12;61.73;;;21.00;;
5871;SDS011;2962;51.312;7.378;2023-12-07T08:24:40;55.70;;;20.83;;
5871;SDS011;2962;51.312;7.378;2023-12-07T08:27:06;67.25;;;25.13;;
5871;SDS011;2962;51.312;7.378;2023-12-07T08:29:31;60.50;;;22.47;;
5871;SDS011;2962;51.312;7.378;2023-12-07T08:31:56;66.53;;;23.70;;
5871;SDS011;2962;51.312;7.378;2023-12-07T08:34:22;68.73;;;24.57;;
5871;SDS011;2962;51.312;7.378;2023-12-07T08:36:47;76.93;;;27.50;;
5871;SDS011;2962;51.312;7.378;2023-12-07T08:39:12;80.27;;;28.20;;
5871;SDS011;2962;51.312;7.378;2023-12-07T08:41:38;77.63;;;27.40;;
5871;SDS011;2962;51.312;7.378;2023-12-07T08:44:04;87.67;;;32.67;;
5871;SDS011;2962;51.312;7.378;2023-12-07T08:46:29;64.78;;;23.83;;
5871;SDS011;2962;51.312;7.378;2023-12-07T08:48:55;60.53;;;24.00;;
5871;SDS011;2962;51.312;7.378;2023-12-07T08:51:21;60.80;;;23.77;;
5871;SDS011;2962;51.312;7.378;2023-12-07T08:53:46;76.20;;;31.40;;
5871;SDS011;2962;51.312;7.378;2023-12-07T08:56:12;64.53;;;29.33;;
5871;SDS011;2962;51.312;7.378;2023-12-07T08:58:40;59.85;;;23.38;;
5871;SDS011;2962;51.312;7.378;2023-12-07T09:01:06;60.23;;;24.43;;
5871;SDS011;2962;51.312;7.378;2023-12-07T09:03:31;50.90;;;21.63;;
5871;SDS011;2962;51.312;7.378;2023-12-07T09:05:58;50.20;;;22.65;;
5871;SDS011;2962;51.312;7.378;2023-12-07T09:08:24;68.63;;;26.80;;
5871;SDS011;2962;51.312;7.378;2023-12-07T09:10:49;58.43;;;25.23;;
5871;SDS011;2962;51.312;7.378;2023-12-07T09:13:16;38.47;;;19.20;;
5871;SDS011;2962;51.312;7.378;2023-12-07T09:15:42;46.40;;;19.10;;
5871;SDS011;2962;51.312;7.378;2023-12-07T09:18:07;46.93;;;21.47;;
5871;SDS011;2962;51.312;7.378;2023-12-07T09:20:32;37.50;;;21.03;;
5871;SDS011;2962;51.312;7.378;2023-12-07T09:22:58;33.33;;;17.70;;
5871;SDS011;2962;51.312;7.378;2023-12-07T09:25:23;31.90;;;18.20;;
5871;SDS011;2962;51.312;7.378;2023-12-07T09:27:52;36.80;;;18.53;;
5871;SDS011;2962;51.312;7.378;2023-12-07T09:30:18;27.60;;;17.60;;
5871;SDS011;2962;51.312;7.378;2023-12-07T09:32:43;28.13;;;15.70;;
5871;SDS011;2962;51.312;7.378;2023-12-07T09:35:09;23.87;;;14.20;;
5871;SDS011;2962;51.312;7.378;2023-12-07T09:37:44;23.43;;;13.00;;
5871;SDS011;2962;51.312;7.378;2023-12-07T09:40:14;24.67;;;14.27;;
5871;SDS011;2962;51.312;7.378;2023-12-07T09:42:49;24.70;;;13.70;;
5871;SDS011;2962;51.312;7.378;2023-12-07T09:45:17;20.13;;;13.63;;
5871;SDS011;2962;51.312;7.378;2023-12-07T09:47:53;16.10;;;11.70;;
5871;SDS011;2962;51.312;7.378;2023-12-07T09:50:23;23.73;;;11.80;;
5871;SDS011;2962;51.312;7.378;2023-12-07T09:52:50;21.63;;;12.83;;
5871;SDS011;2962;51.312;7.378;2023-12-07T09:55:16;19.57;;;12.87;;
5871;SDS011;2962;51.312;7.378;2023-12-07T09:57:43;18.70;;;13.07;;
5871;SDS011;2962;51.312;7.378;2023-12-07T10:00:10;15.77;;;9.97;;
5871;SDS011;2962;51.312;7.378;2023-12-07T10:02:39;19.83;;;11.33;;
5871;SDS011;2962;51.312;7.378;2023-12-07T10:05:06;20.03;;;10.53;;
5871;SDS011;2962;51.312;7.378;2023-12-07T10:07:34;13.97;;;9.30;;
5871;SDS011;2962;51.312;7.378;2023-12-07T10:10:02;13.80;;;9.97;;
5871;SDS011;2962;51.312;7.378;2023-12-07T10:12:31;14.33;;;10.47;;
5871;SDS011;2962;51.312;7.378;2023-12-07T10:15:00;14.70;;;10.83;;
5871;SDS011;2962;51.312;7.378;2023-12-07T10:17:49;15.90;;;10.70;;
5871;SDS011;2962;51.312;7.378;2023-12-07T10:20:23;14.50;;;11.00;;
5871;SDS011;2962;51.312;7.378;2023-12-07T10:23:05;12.07;;;8.53;;
5871;SDS011;2962;51.312;7.378;2023-12-07T10:25:32;18.83;;;10.77;;
5871;SDS011;2962;51.312;7.378;2023-12-07T10:28:02;19.10;;;11.33;;
5871;SDS011;2962;51.312;7.378;2023-12-07T10:30:32;14.13;;;10.10;;
5871;SDS011;2962;51.312;7.378;2023-12-07T10:32:57;15.63;;;10.67;;
5871;SDS011;2962;51.312;7.378;2023-12-07T10:35:23;14.47;;;10.70;;
5871;SDS011;2962;51.312;7.378;2023-12-07T10:37:48;12.00;;;9.33;;
5871;SDS011;2962;51.312;7.378;2023-12-07T10:40:14;16.13;;;9.40;;
5871;SDS011;2962;51.312;7.378;2023-12-07T10:42:40;11.70;;;8.40;;
5871;SDS011;2962;51.312;7.378;2023-12-07T10:45:06;14.27;;;9.30;;
5871;SDS011;2962;51.312;7.378;2023-12-07T10:47:37;14.40;;;9.23;;
5871;SDS011;2962;51.312;7.378;2023-12-07T10:50:06;16.00;;;9.70;;
5871;SDS011;2962;51.312;7.378;2023-12-07T10:52:36;10.77;;;8.60;;
5871;SDS011;2962;51.312;7.378;2023-12-07T10:55:07;14.17;;;8.73;;
5871;SDS011;2962;51.312;7.378;2023-12-07T10:57:38;11.80;;;9.17;;
5871;SDS011;2962;51.312;7.378;2023-12-07T11:00:05;13.33;;;8.70;;
5871;SDS011;2962;51.312;7.378;2023-12-07T11:02:32;9.93;;;8.40;;
5871;SDS011;2962;51.312;7.378;2023-12-07T11:04:57;12.23;;;8.17;;
5871;SDS011;2962;51.312;7.378;2023-12-07T11:07:24;13.20;;;9.37;;
5871;SDS011;2962;51.312;7.378;2023-12-07T11:09:54;11.60;;;9.13;;
5871;SDS011;2962;51.312;7.378;2023-12-07T11:12:35;11.87;;;8.47;;
5871;SDS011;2962;51.312;7.378;2023-12-07T11:15:07;12.53;;;9.13;;
5871;SDS011;2962;51.312;7.378;2023-12-07T11:17:52;11.97;;;8.67;;
5871;SDS011;2962;51.312;7.378;2023-12-07T11:20:39;10.40;;;9.20;;
5871;SDS011;2962;51.312;7.378;2023-12-07T11:23:09;10.80;;;9.10;;
5871;SDS011;2962;51.312;7.378;2023-12-07T11:25:35;8.10;;;7.30;;
5871;SDS011;2962;51.312;7.378;2023-12-07T11:28:01;9.40;;;8.38;;
5871;SDS011;2962;51.312;7.378;2023-12-07T11:30:30;10.00;;;8.87;;
5871;SDS011;2962;51.312;7.378;2023-12-07T11:32:56;12.10;;;8.50;;
5871;SDS011;2962;51.312;7.378;2023-12-07T11:35:21;11.90;;;8.47;;
5871;SDS011;2962;51.312;7.378;2023-12-07T11:38:08;10.07;;;8.77;;
5871;SDS011;2962;51.312;7.378;2023-12-07T11:40:42;9.57;;;8.60;;
5871;SDS011;2962;51.312;7.378;2023-12-07T11:43:16;10.90;;;8.70;;
5871;SDS011;2962;51.312;7.378;2023-12-07T11:45:48;11.13;;;9.10;;
5871;SDS011;2962;51.312;7.378;2023-12-07T11:48:14;11.27;;;8.43;;
5871;SDS011;2962;51.312;7.378;2023-12-07T11:50:55;11.63;;;8.43;;
5871;SDS011;2962;51.312;7.378;2023-12-07T11:53:34;8.80;;;7.97;;
5871;SDS011;2962;51.312;7.378;2023-12-07T11:56:04;9.37;;;8.00;;
5871;SDS011;2962;51.312;7.378;2023-12-07T11:58:31;11.43;;;9.67;;
5871;SDS011;2962;51.312;7.378;2023-12-07T12:00:58;15.20;;;10.40;;
5871;SDS011;2962;51.312;7.378;2023-12-07T12:03:24;11.63;;;8.30;;
5871;SDS011;2962;51.312;7.378;2023-12-07T12:05:50;9.57;;;7.80;;
5871;SDS011;2962;51.312;7.378;2023-12-07T12:08:16;10.50;;;8.43;;
5871;SDS011;2962;51.312;7.378;2023-12-07T12:10:43;10.33;;;8.73;;
5871;SDS011;2962;51.312;7.378;2023-12-07T12:13:09;9.80;;;8.80;;
5871;SDS011;2962;51.312;7.378;2023-12-07T12:15:35;11.10;;;9.60;;
5871;SDS011;2962;51.312;7.378;2023-12-07T12:18:00;10.40;;;9.30;;
5871;SDS011;2962;51.312;7.378;2023-12-07T12:20:26;8.60;;;7.20;;
5871;SDS011;2962;51.312;7.378;2023-12-07T12:22:52;8.80;;;7.63;;
5871;SDS011;2962;51.312;7.378;2023-12-07T12:25:25;9.53;;;8.50;;
5871;SDS011;2962;51.312;7.378;2023-12-07T12:27:53;7.53;;;6.93;;
5871;SDS011;2962;51.312;7.378;2023-12-07T12:30:19;8.90;;;7.70;;
5871;SDS011;2962;51.312;7.378;2023-12-07T12:32:45;8.47;;;7.67;;
5871;SDS011;2962;51.312;7.378;2023-12-07T12:35:11;8.43;;;7.63;;
5871;SDS011;2962;51.312;7.378;2023-12-07T12:37:39;14.73;;;11.17;;
5871;SDS011;2962;51.312;7.378;2023-12-07T12:40:06;10.40;;;8.20;;
5871;SDS011;2962;51.312;7.378;2023-12-07T12:42:32;10.47;;;9.20;;
5871;SDS011;2962;51.312;7.378;2023-12-07T12:44:58;17.97;;;9.27;;
5871;SDS011;2962;51.312;7.378;2023-12-07T12:47:24;8.47;;;7.27;;
5871;SDS011;2962;51.312;7.378;2023-12-07T12:49:49;11.57;;;8.93;;
5871;SDS011;2962;51.312;7.378;2023-12-07T12:52:15;7.87;;;7.27;;
5871;SDS011;2962;51.312;7.378;2023-12-07T12:54:45;9.03;;;8.13;;
5871;SDS011;2962;51.312;7.378;2023-12-07T12:57:10;9.27;;;8.27;;
5871;SDS011;2962;51.312;7.378;2023-12-07T12:59:36;9.27;;;8.47;;
5871;SDS011;2962;51.312;7.378;2023-12-07T13:02:04;11.63;;;7.37;;
5871;SDS011;2962;51.312;7.378;2023-12-07T13:04:30;14.23;;;8.43;;
5871;SDS011;2962;51.312;7.378;2023-12-07T13:06:55;10.53;;;8.20;;
5871;SDS011;2962;51.312;7.378;2023-12-07T13:09:21;10.67;;;7.23;;
5871;SDS011;2962;51.312;7.378;2023-12-07T13:11:47;12.47;;;6.90;;
5871;SDS011;2962;51.312;7.378;2023-12-07T13:14:12;7.30;;;6.70;;
5871;SDS011;2962;51.312;7.378;2023-12-07T13:16:37;8.60;;;7.20;;
5871;SDS011;2962;51.312;7.378;2023-12-07T13:19:03;7.87;;;7.00;;
5871;SDS011;2962;51.312;7.378;2023-12-07T13:21:28;7.80;;;6.90;;
5871;SDS011;2962;51.312;7.378;2023-12-07T13:23:53;11.20;;;8.17;;
5871;SDS011;2962;51.312;7.378;2023-12-07T13:26:19;7.60;;;6.73;;
5871;SDS011;2962;51.312;7.378;2023-12-07T13:28:48;7.47;;;6.97;;
5871;SDS011;2962;51.312;7.378;2023-12-07T13:31:13;9.20;;;7.43;;
5871;SDS011;2962;51.312;7.378;2023-12-07T13:33:39;9.03;;;7.43;;
5871;SDS011;2962;51.312;7.378;2023-12-07T13:36:05;8.23;;;7.17;;
5871;SDS011;2962;51.312;7.378;2023-12-07T13:38:31;7.23;;;6.60;;
5871;SDS011;2962;51.312;7.378;2023-12-07T13:40:56;7.60;;;6.83;;
5871;SDS011;2962;51.312;7.378;2023-12-07T13:43:22;8.70;;;6.70;;
5871;SDS011;2962;51.312;7.378;2023-12-07T13:45:50;7.93;;;7.13;;
5871;SDS011;2962;51.312;7.378;2023-12-07T13:48:15;9.97;;;7.63;;
5871;SDS011;2962;51.312;7.378;2023-12-07T13:50:40;9.37;;;7.50;;
5871;SDS011;2962;51.312;7.378;2023-12-07T13:53:07;10.00;;;7.27;;
5871;SDS011;2962;51.312;7.378;2023-12-07T13:55:35;11.10;;;8.40;;
5871;SDS011;2962;51.312;7.378;2023-12-07T13:58:02;10.30;;;8.23;;
5871;SDS011;2962;51.312;7.378;2023-12-07T14:00:28;6.70;;;6.10;;
5871;SDS011;2962;51.312;7.378;2023-12-07T14:02:53;8.27;;;6.80;;
5871;SDS011;2962;51.312;7.378;2023-12-07T14:05:19;7.83;;;6.97;;
5871;SDS011;2962;51.312;7.378;2023-12-07T14:07:44;7.47;;;6.73;;
5871;SDS011;2962;51.312;7.378;2023-12-07T14:10:10;6.53;;;6.13;;
5871;SDS011;2962;51.312;7.378;2023-12-07T14:12:36;7.57;;;6.87;;
5871;SDS011;2962;51.312;7.378;2023-12-07T14:15:02;9.57;;;6.40;;
5871;SDS011;2962;51.312;7.378;2023-12-07T14:17:28;8.90;;;7.53;;
5871;SDS011;2962;51.312;7.378;2023-12-07T14:20:02;7.10;;;6.40;;
5871;SDS011;2962;51.312;7.378;2023-12-07T14:22:32;8.13;;;6.70;;
5871;SDS011;2962;51.312;7.378;2023-12-07T14:24:57;8.93;;;6.93;;
5871;SDS011;2962;51.312;7.378;2023-12-07T14:27:23;9.33;;;7.70;;
5871;SDS011;2962;51.312;7.378;2023-12-07T14:29:48;9.03;;;7.50;;
5871;SDS011;2962;51.312;7.378;2023-12-07T14:32:13;10.50;;;6.83;;
5871;SDS011;2962;51.312;7.378;2023-12-07T14:34:38;9.17;;;7.33;;
5871;SDS011;2962;51.312;7.378;2023-12-07T14:37:04;10.57;;;6.93;;
5871;SDS011;2962;51.312;7.378;2023-12-07T14:39:30;7.47;;;6.30;;
5871;SDS011;2962;51.312;7.378;2023-12-07T14:41:55;8.13;;;7.10;;
5871;SDS011;2962;51.312;7.378;2023-12-07T14:44:21;14.00;;;7.50;;
5871;SDS011;2962;51.312;7.378;2023-12-07T14:46:47;11.07;;;7.97;;
5871;SDS011;2962;51.312;7.378;2023-12-07T14:49:13;12.43;;;9.20;;